Antrim, NH (03440)

3:04 AM EST on March 04, 2015 (GMT -0500)
Clark Farm | Change Station
CLOSE
Current Station
Personal Weather Station
Location: Hancock, NH
Elevation: 1299 ft
Nearby Weather Stations
Active Advisory: Winter Weather Advisory Active Notice: Public Information Statement

Elev 1299 ft 43.00 °N, 72.02 °W | Updated 10 minutes ago

Overcast
Overcast
31.4 °F
Feels Like 24 °F
N
9.0
Wind Variable Wind from West
Gusts 23.0 mph

Today
High -- | Low -- °F
--% Chance of Precip.
Yesterday
High -- | Low -- °F
Precip. -- in
6:19 AM 5:40 PM
Waxing Gibbous, 98% visible
Pressure 29.65 in
Visibility 10.0 miles
Clouds Overcast 400 ft
Windchill 24 °F
Dew Point 30 °F
Humidity 96%
Rainfall 0.00 in
Snow Depth Not available.
UV 0 out of 12
Pollen .30 out of 12
Air Quality Not available.
Flu Activity Not available.
METAR KAFN 040752Z AUTO 22010KT 10SM OVC004 00/M01 A2959 RMK AO2 SLP038 T00001006

More Conditions Fewer Conditions

Pressure 29.65 in
Visibility 10.0 miles
Clouds Overcast 400 ft
Windchill 24 °F
Dew Point 30 °F
Humidity 96%
Rainfall 0.00 in
Snow Depth Not available.
UV 0 out of 12
Pollen .30 out of 12
Air Quality Not available.
Flu Activity Not available.
METAR KAFN 040752Z AUTO 22010KT 10SM OVC004 00/M01 A2959 RMK AO2 SLP038 T00001006

More Conditions Fewer Conditions

10-Day Weather Forecast

Almanac

Astronomy

Mar. 04, 2015 Rise Set
Actual Time
Civil Twilight
Nautical Twilight
Astronomical Twilight
Moon
Length of Visible Light
Length of Day
Tomorrow will be .
, % of the Moon is Illuminated

Today's Extremes

State Highs State Lows

Community

WunderPhotos

Upload Photos

1,802,416 photos uploaded!

WunderBlogs® & News

Nearby

Air Quality

  Air Quality AQ Index Pollutant
Not available.

Snow Depth

Station Depth Elevation

Earthquake Activity

City Distance Mag. Time & Date
Minimum magnitude displayed is 2.5.

Coastal Water Temperatures

Place Temperature

Nearby Weather Stations

Winter Weather Advisory
Statement as of 12:03 AM EST on March 04, 2015

... Winter Weather Advisory remains in effect until 7 am EST
Wednesday...

* hazard types... snow... sleet and freezing drizzle.

* Accumulations... snow accumulation of 2 to 4 inches.

* Timing... light snow will end in the pre-dawn hours. The
precipitation could briefly mix with or change to sleet or
freezing drizzle as it ends.

* Impacts... Road will be snow covered and slippery.

* Winds... south 5 to 10 mph with gusts up to 20 mph.

* Temperatures... around 30.

Precautionary/preparedness actions...

A Winter Weather Advisory means that periods of snow... sleet... or
freezing rain will cause travel difficulties. Be prepared for
slippery roads and limited visibilities... and use caution while
driving.



Es